Fredericksburg, TX (78624)

6:45 AM CDT on August 21, 2014 (GMT -0500)
KTXFREDE12 | Change Station
CLOSE
Current Station
Personal Weather Station
Location: Fredericksburg, TX
Elevation: 1703 ft
Nearby Weather Stations

Elev 1703 ft 30.28 °N, 98.87 °W | Updated 27 seconds ago

Mostly Cloudy
Mostly Cloudy
76.6 °F
Feels Like 78 °F
N
0.0
Wind Variable Wind from South
Gusts 5.0 mph

Today
High -- | Low -- °F
--% Chance of Precip.
Yesterday
High -- | Low -- °F
Precip. -- in
7:05 AM 8:10 PM
Waning Crescent, 15% visible
Pressure 30.05 in
Visibility 10.0 miles
Clouds Scattered Clouds 1900 ft
Scattered Clouds 2500 ft
Mostly Cloudy 3400 ft
Heat Index 78 °F
Dew Point 70 °F
Humidity 81%
Rainfall 0.00 in
Snow Depth Not available.
UV 0 out of 12
Pollen 8.10 out of 12
Air Quality Not available.
Flu Activity Not available.
METAR KT82 211135Z AUTO 17006KT 10SM SCT019 SCT025 BKN034 25/21 A3005 RMK AO2 T02470210

More Conditions Fewer Conditions

Pressure 30.05 in
Visibility 10.0 miles
Clouds Scattered Clouds 1900 ft
Scattered Clouds 2500 ft
Mostly Cloudy 3400 ft
Heat Index 78 °F
Dew Point 70 °F
Humidity 81%
Rainfall 0.00 in
Snow Depth Not available.
UV 0 out of 12
Pollen 8.10 out of 12
Air Quality Not available.
Flu Activity Not available.
METAR KT82 211135Z AUTO 17006KT 10SM SCT019 SCT025 BKN034 25/21 A3005 RMK AO2 T02470210

More Conditions Fewer Conditions

Nowcast | as of 4:52 am CDT on August 21, 2014

Through 7 am...isolated showers will develop and move north across portions of the Edwards Plateau and Hill Country. Rainfall amounts will be light with most locations receiving one quarter of an inch or less.

×

10-Day Weather Forecast

Almanac

Astronomy

Aug. 21, 2014 Rise Set
Actual Time 7:05 AM CDT 8:10 PM CDT
Civil Twilight 6:40 AM CDT 8:35 PM CDT
Nautical Twilight 6:11 AM CDT 9:05 PM CDT
Astronomical Twilight 5:40 AM CDT 9:35 PM CDT
Moon 3:44 AM CDT 5:34 PM CDT
Length of Visible Light 13h 54m
Length of Day
13h 04m
Tomorrow will be 1m 41s shorter.
Waning Crescent, 15% of the Moon is Illuminated
Today
Waning Crescent
Aug 25
New
Sep 2
First Quarter
Sep 8
Full
Sep 15
Last Quarter

Today's Extremes

State Highs State Lows

Community

WunderPhotos

Upload Photos

1,745,864 photos uploaded!

Nearby

Snow Depth

Station Depth Elevation
No new snow has been reported.

Earthquake Activity

City Distance Mag. Time & Date
No recent earthquake activity has been reported nearby.
Minimum magnitude displayed is 2.5.

Coastal Water Temperatures

Place Temperature
No Stations Reporting

Nearby Weather Stations